sensor_id;sensor_type;location;lat;lon;timestamp;P1;durP1;ratioP1;P2;durP2;ratioP2
69892;SDS011;61212;42.688;22.176;2022-07-10T00:01:31;21.13;;;13.35;;
69892;SDS011;61212;42.688;22.176;2022-07-10T00:03:57;16.20;;;11.90;;
69892;SDS011;61212;42.688;22.176;2022-07-10T00:06:22;19.20;;;11.55;;
69892;SDS011;61212;42.688;22.176;2022-07-10T00:08:48;19.77;;;12.57;;
69892;SDS011;61212;42.688;22.176;2022-07-10T00:11:14;17.75;;;11.93;;
69892;SDS011;61212;42.688;22.176;2022-07-10T00:13:40;15.52;;;13.02;;
69892;SDS011;61212;42.688;22.176;2022-07-10T00:16:05;15.98;;;12.77;;
69892;SDS011;61212;42.688;22.176;2022-07-10T00:18:32;15.10;;;12.07;;
69892;SDS011;61212;42.688;22.176;2022-07-10T00:20:58;14.80;;;10.98;;
69892;SDS011;61212;42.688;22.176;2022-07-10T00:23:23;14.95;;;11.93;;
69892;SDS011;61212;42.688;22.176;2022-07-10T00:25:49;18.25;;;12.35;;
69892;SDS011;61212;42.688;22.176;2022-07-10T00:28:15;23.20;;;11.32;;
69892;SDS011;61212;42.688;22.176;2022-07-10T00:30:41;14.68;;;9.30;;
69892;SDS011;61212;42.688;22.176;2022-07-10T00:33:07;10.60;;;9.35;;
69892;SDS011;61212;42.688;22.176;2022-07-10T00:35:32;17.40;;;12.25;;
69892;SDS011;61212;42.688;22.176;2022-07-10T00:37:58;15.95;;;11.82;;
69892;SDS011;61212;42.688;22.176;2022-07-10T00:40:24;20.85;;;11.38;;
69892;SDS011;61212;42.688;22.176;2022-07-10T00:42:50;20.38;;;11.88;;
69892;SDS011;61212;42.688;22.176;2022-07-10T00:45:15;18.52;;;12.40;;
69892;SDS011;61212;42.688;22.176;2022-07-10T00:47:41;19.10;;;12.70;;
69892;SDS011;61212;42.688;22.176;2022-07-10T00:50:07;17.95;;;12.52;;
69892;SDS011;61212;42.688;22.176;2022-07-10T00:52:34;20.05;;;11.80;;
69892;SDS011;61212;42.688;22.176;2022-07-10T00:55:03;22.23;;;11.48;;
69892;SDS011;61212;42.688;22.176;2022-07-10T00:57:36;20.50;;;12.68;;
69892;SDS011;61212;42.688;22.176;2022-07-10T01:00:04;22.85;;;13.40;;
69892;SDS011;61212;42.688;22.176;2022-07-10T01:02:31;23.05;;;12.30;;
69892;SDS011;61212;42.688;22.176;2022-07-10T01:04:57;25.52;;;13.85;;
69892;SDS011;61212;42.688;22.176;2022-07-10T01:07:23;18.63;;;13.65;;
69892;SDS011;61212;42.688;22.176;2022-07-10T01:09:48;17.55;;;11.98;;
69892;SDS011;61212;42.688;22.176;2022-07-10T01:12:14;20.33;;;12.73;;
69892;SDS011;61212;42.688;22.176;2022-07-10T01:14:42;17.75;;;11.05;;
69892;SDS011;61212;42.688;22.176;2022-07-10T01:17:11;12.63;;;10.35;;
69892;SDS011;61212;42.688;22.176;2022-07-10T01:19:38;11.48;;;10.20;;
69892;SDS011;61212;42.688;22.176;2022-07-10T01:22:04;12.18;;;9.88;;
69892;SDS011;61212;42.688;22.176;2022-07-10T01:24:30;12.43;;;9.95;;
69892;SDS011;61212;42.688;22.176;2022-07-10T01:26:55;12.82;;;9.95;;
69892;SDS011;61212;42.688;22.176;2022-07-10T01:29:21;16.20;;;10.32;;
69892;SDS011;61212;42.688;22.176;2022-07-10T01:31:47;15.38;;;10.27;;
69892;SDS011;61212;42.688;22.176;2022-07-10T01:34:13;13.57;;;9.48;;
69892;SDS011;61212;42.688;22.176;2022-07-10T01:36:39;13.52;;;10.05;;
69892;SDS011;61212;42.688;22.176;2022-07-10T01:39:06;17.27;;;8.55;;
69892;SDS011;61212;42.688;22.176;2022-07-10T01:41:32;11.90;;;8.50;;
69892;SDS011;61212;42.688;22.176;2022-07-10T01:43:58;10.52;;;8.75;;
69892;SDS011;61212;42.688;22.176;2022-07-10T01:46:24;10.38;;;9.27;;
69892;SDS011;61212;42.688;22.176;2022-07-10T01:48:50;10.25;;;8.63;;
69892;SDS011;61212;42.688;22.176;2022-07-10T01:51:16;11.43;;;9.10;;
69892;SDS011;61212;42.688;22.176;2022-07-10T01:53:42;14.65;;;10.45;;
69892;SDS011;61212;42.688;22.176;2022-07-10T01:56:09;10.20;;;8.93;;
69892;SDS011;61212;42.688;22.176;2022-07-10T01:58:36;13.85;;;9.85;;
69892;SDS011;61212;42.688;22.176;2022-07-10T02:01:03;13.57;;;9.45;;
69892;SDS011;61212;42.688;22.176;2022-07-10T02:03:29;14.27;;;10.02;;
69892;SDS011;61212;42.688;22.176;2022-07-10T02:06:14;12.63;;;10.80;;
69892;SDS011;61212;42.688;22.176;2022-07-10T02:08:40;29.00;;;10.82;;
69892;SDS011;61212;42.688;22.176;2022-07-10T02:11:06;25.25;;;10.10;;
69892;SDS011;61212;42.688;22.176;2022-07-10T02:13:31;19.65;;;11.15;;
69892;SDS011;61212;42.688;22.176;2022-07-10T02:15:58;41.10;;;11.40;;
69892;SDS011;61212;42.688;22.176;2022-07-10T02:18:24;16.17;;;11.07;;
69892;SDS011;61212;42.688;22.176;2022-07-10T02:20:51;26.63;;;10.73;;
69892;SDS011;61212;42.688;22.176;2022-07-10T02:23:17;23.15;;;10.82;;
69892;SDS011;61212;42.688;22.176;2022-07-10T02:25:43;15.63;;;10.45;;
69892;SDS011;61212;42.688;22.176;2022-07-10T02:28:09;39.42;;;11.50;;
69892;SDS011;61212;42.688;22.176;2022-07-10T02:30:35;21.77;;;9.27;;
69892;SDS011;61212;42.688;22.176;2022-07-10T02:33:01;16.67;;;9.75;;
69892;SDS011;61212;42.688;22.176;2022-07-10T02:35:27;21.95;;;9.70;;
69892;SDS011;61212;42.688;22.176;2022-07-10T02:37:53;13.68;;;9.65;;
69892;SDS011;61212;42.688;22.176;2022-07-10T02:40:19;10.10;;;9.02;;
69892;SDS011;61212;42.688;22.176;2022-07-10T02:42:44;9.77;;;8.02;;
69892;SDS011;61212;42.688;22.176;2022-07-10T02:45:10;10.48;;;9.15;;
69892;SDS011;61212;42.688;22.176;2022-07-10T02:50:58;10.32;;;8.23;;
69892;SDS011;61212;42.688;22.176;2022-07-10T02:53:24;9.73;;;7.40;;
69892;SDS011;61212;42.688;22.176;2022-07-10T02:55:49;13.13;;;8.35;;
69892;SDS011;61212;42.688;22.176;2022-07-10T02:58:15;12.38;;;9.20;;
69892;SDS011;61212;42.688;22.176;2022-07-10T03:00:42;12.55;;;8.90;;
69892;SDS011;61212;42.688;22.176;2022-07-10T03:03:08;9.98;;;8.52;;
69892;SDS011;61212;42.688;22.176;2022-07-10T03:05:34;15.95;;;9.15;;
69892;SDS011;61212;42.688;22.176;2022-07-10T03:08:00;10.40;;;9.05;;
69892;SDS011;61212;42.688;22.176;2022-07-10T03:10:26;11.23;;;9.00;;
69892;SDS011;61212;42.688;22.176;2022-07-10T03:12:51;14.52;;;9.18;;
69892;SDS011;61212;42.688;22.176;2022-07-10T03:15:17;19.38;;;8.95;;
69892;SDS011;61212;42.688;22.176;2022-07-10T03:21:05;8.98;;;8.07;;
69892;SDS011;61212;42.688;22.176;2022-07-10T03:23:31;10.00;;;8.55;;
69892;SDS011;61212;42.688;22.176;2022-07-10T03:25:56;9.75;;;8.75;;
69892;SDS011;61212;42.688;22.176;2022-07-10T03:28:22;50.17;;;10.05;;
69892;SDS011;61212;42.688;22.176;2022-07-10T03:30:48;12.38;;;8.68;;
69892;SDS011;61212;42.688;22.176;2022-07-10T03:33:13;13.27;;;8.30;;
69892;SDS011;61212;42.688;22.176;2022-07-10T03:35:39;11.15;;;7.90;;
69892;SDS011;61212;42.688;22.176;2022-07-10T03:38:05;8.98;;;7.68;;
69892;SDS011;61212;42.688;22.176;2022-07-10T03:40:31;9.40;;;7.28;;
69892;SDS011;61212;42.688;22.176;2022-07-10T03:42:56;12.57;;;6.90;;
69892;SDS011;61212;42.688;22.176;2022-07-10T03:45:22;7.60;;;6.80;;
69892;SDS011;61212;42.688;22.176;2022-07-10T03:47:48;7.65;;;6.50;;
69892;SDS011;61212;42.688;22.176;2022-07-10T03:50:14;11.38;;;7.20;;
69892;SDS011;61212;42.688;22.176;2022-07-10T03:52:39;9.35;;;6.65;;
69892;SDS011;61212;42.688;22.176;2022-07-10T03:55:06;18.38;;;7.28;;
69892;SDS011;61212;42.688;22.176;2022-07-10T03:57:32;9.93;;;6.45;;
69892;SDS011;61212;42.688;22.176;2022-07-10T04:08:11;13.07;;;8.15;;
69892;SDS011;61212;42.688;22.176;2022-07-10T04:10:37;10.57;;;8.18;;
69892;SDS011;61212;42.688;22.176;2022-07-10T04:13:03;11.57;;;7.28;;
69892;SDS011;61212;42.688;22.176;2022-07-10T04:15:29;12.80;;;7.72;;
69892;SDS011;61212;42.688;22.176;2022-07-10T04:20:58;10.65;;;7.53;;
69892;SDS011;61212;42.688;22.176;2022-07-10T04:23:23;11.63;;;7.55;;
69892;SDS011;61212;42.688;22.176;2022-07-10T04:25:49;7.32;;;6.60;;
69892;SDS011;61212;42.688;22.176;2022-07-10T04:28:15;8.02;;;6.68;;
69892;SDS011;61212;42.688;22.176;2022-07-10T04:30:41;7.85;;;7.05;;
69892;SDS011;61212;42.688;22.176;2022-07-10T04:33:06;6.88;;;6.00;;
69892;SDS011;61212;42.688;22.176;2022-07-10T04:35:32;6.93;;;5.72;;
69892;SDS011;61212;42.688;22.176;2022-07-10T04:37:58;6.88;;;5.68;;
69892;SDS011;61212;42.688;22.176;2022-07-10T04:40:24;7.50;;;5.85;;
69892;SDS011;61212;42.688;22.176;2022-07-10T04:42:49;9.48;;;7.07;;
69892;SDS011;61212;42.688;22.176;2022-07-10T04:45:15;12.07;;;5.50;;
69892;SDS011;61212;42.688;22.176;2022-07-10T04:47:41;7.18;;;5.82;;
69892;SDS011;61212;42.688;22.176;2022-07-10T04:50:07;6.78;;;6.07;;
69892;SDS011;61212;42.688;22.176;2022-07-10T04:52:33;9.10;;;6.38;;
69892;SDS011;61212;42.688;22.176;2022-07-10T04:54:59;6.15;;;5.32;;
69892;SDS011;61212;42.688;22.176;2022-07-10T04:57:24;8.30;;;5.78;;
69892;SDS011;61212;42.688;22.176;2022-07-10T04:59:51;6.47;;;5.72;;
69892;SDS011;61212;42.688;22.176;2022-07-10T05:02:18;8.00;;;6.65;;
69892;SDS011;61212;42.688;22.176;2022-07-10T05:04:44;9.20;;;6.93;;
69892;SDS011;61212;42.688;22.176;2022-07-10T05:07:10;12.50;;;6.93;;
69892;SDS011;61212;42.688;22.176;2022-07-10T05:09:36;12.40;;;7.65;;
69892;SDS011;61212;42.688;22.176;2022-07-10T05:12:02;10.57;;;7.05;;
69892;SDS011;61212;42.688;22.176;2022-07-10T05:14:28;9.77;;;6.63;;
69892;SDS011;61212;42.688;22.176;2022-07-10T05:16:54;10.02;;;7.90;;
69892;SDS011;61212;42.688;22.176;2022-07-10T05:19:19;10.68;;;7.32;;
69892;SDS011;61212;42.688;22.176;2022-07-10T05:21:45;11.27;;;6.93;;
69892;SDS011;61212;42.688;22.176;2022-07-10T05:24:11;8.38;;;7.43;;
69892;SDS011;61212;42.688;22.176;2022-07-10T05:26:37;11.60;;;8.38;;
69892;SDS011;61212;42.688;22.176;2022-07-10T05:29:02;10.90;;;7.97;;
69892;SDS011;61212;42.688;22.176;2022-07-10T05:31:28;10.57;;;8.57;;
69892;SDS011;61212;42.688;22.176;2022-07-10T05:33:54;10.75;;;8.25;;
69892;SDS011;61212;42.688;22.176;2022-07-10T05:36:20;10.80;;;7.57;;
69892;SDS011;61212;42.688;22.176;2022-07-10T05:38:46;10.68;;;7.38;;
69892;SDS011;61212;42.688;22.176;2022-07-10T05:41:11;12.05;;;8.25;;
69892;SDS011;61212;42.688;22.176;2022-07-10T05:43:38;11.65;;;8.10;;
69892;SDS011;61212;42.688;22.176;2022-07-10T05:46:04;8.60;;;7.40;;
69892;SDS011;61212;42.688;22.176;2022-07-10T05:48:30;12.25;;;7.80;;
69892;SDS011;61212;42.688;22.176;2022-07-10T05:50:57;8.57;;;7.03;;
69892;SDS011;61212;42.688;22.176;2022-07-10T05:53:22;9.85;;;8.27;;
69892;SDS011;61212;42.688;22.176;2022-07-10T05:55:49;10.25;;;7.28;;
69892;SDS011;61212;42.688;22.176;2022-07-10T05:58:15;15.85;;;7.53;;
69892;SDS011;61212;42.688;22.176;2022-07-10T06:00:41;7.65;;;6.68;;
69892;SDS011;61212;42.688;22.176;2022-07-10T06:06:11;6.65;;;4.88;;
69892;SDS011;61212;42.688;22.176;2022-07-10T06:08:41;12.88;;;4.38;;
69892;SDS011;61212;42.688;22.176;2022-07-10T06:11:09;9.15;;;4.32;;
69892;SDS011;61212;42.688;22.176;2022-07-10T06:13:36;9.43;;;4.20;;
69892;SDS011;61212;42.688;22.176;2022-07-10T06:16:02;11.00;;;4.45;;
69892;SDS011;61212;42.688;22.176;2022-07-10T06:18:29;8.93;;;3.78;;
69892;SDS011;61212;42.688;22.176;2022-07-10T06:20:56;12.75;;;4.05;;
69892;SDS011;61212;42.688;22.176;2022-07-10T06:23:21;8.55;;;3.28;;
69892;SDS011;61212;42.688;22.176;2022-07-10T06:25:47;6.13;;;3.47;;
69892;SDS011;61212;42.688;22.176;2022-07-10T06:28:14;7.13;;;3.33;;
69892;SDS011;61212;42.688;22.176;2022-07-10T06:30:41;12.00;;;3.03;;
69892;SDS011;61212;42.688;22.176;2022-07-10T06:33:07;5.68;;;2.60;;
69892;SDS011;61212;42.688;22.176;2022-07-10T06:35:33;10.07;;;2.83;;
69892;SDS011;61212;42.688;22.176;2022-07-10T06:37:59;6.68;;;2.92;;
69892;SDS011;61212;42.688;22.176;2022-07-10T06:40:25;6.15;;;2.75;;
69892;SDS011;61212;42.688;22.176;2022-07-10T06:42:53;8.98;;;2.63;;
69892;SDS011;61212;42.688;22.176;2022-07-10T06:45:19;8.55;;;2.65;;
69892;SDS011;61212;42.688;22.176;2022-07-10T06:47:45;7.53;;;2.63;;
69892;SDS011;61212;42.688;22.176;2022-07-10T06:50:30;6.88;;;2.40;;
69892;SDS011;61212;42.688;22.176;2022-07-10T06:52:57;3.42;;;2.30;;
69892;SDS011;61212;42.688;22.176;2022-07-10T06:55:23;7.43;;;2.50;;
69892;SDS011;61212;42.688;22.176;2022-07-10T06:57:50;9.05;;;2.50;;
69892;SDS011;61212;42.688;22.176;2022-07-10T07:00:16;11.75;;;3.03;;
69892;SDS011;61212;42.688;22.176;2022-07-10T07:02:42;9.00;;;2.47;;
69892;SDS011;61212;42.688;22.176;2022-07-10T07:05:08;10.55;;;3.30;;
69892;SDS011;61212;42.688;22.176;2022-07-10T07:07:34;7.32;;;2.33;;
69892;SDS011;61212;42.688;22.176;2022-07-10T07:10:00;17.52;;;3.05;;
69892;SDS011;61212;42.688;22.176;2022-07-10T07:12:27;10.35;;;2.60;;
69892;SDS011;61212;42.688;22.176;2022-07-10T07:14:54;6.35;;;2.72;;
69892;SDS011;61212;42.688;22.176;2022-07-10T07:17:20;7.18;;;2.17;;
69892;SDS011;61212;42.688;22.176;2022-07-10T07:19:47;8.75;;;2.33;;
69892;SDS011;61212;42.688;22.176;2022-07-10T07:22:35;6.25;;;2.20;;
69892;SDS011;61212;42.688;22.176;2022-07-10T07:25:20;3.83;;;2.08;;
69892;SDS011;61212;42.688;22.176;2022-07-10T07:27:46;5.80;;;2.28;;
69892;SDS011;61212;42.688;22.176;2022-07-10T07:30:13;8.05;;;2.38;;
69892;SDS011;61212;42.688;22.176;2022-07-10T07:32:40;5.28;;;1.98;;
69892;SDS011;61212;42.688;22.176;2022-07-10T07:35:07;6.28;;;2.03;;
69892;SDS011;61212;42.688;22.176;2022-07-10T07:37:40;11.68;;;2.67;;
69892;SDS011;61212;42.688;22.176;2022-07-10T07:40:07;8.50;;;2.10;;
69892;SDS011;61212;42.688;22.176;2022-07-10T07:42:34;5.25;;;2.60;;
69892;SDS011;61212;42.688;22.176;2022-07-10T07:45:00;4.60;;;1.92;;
69892;SDS011;61212;42.688;22.176;2022-07-10T07:47:26;3.63;;;2.30;;
69892;SDS011;61212;42.688;22.176;2022-07-10T07:49:53;14.15;;;2.60;;
69892;SDS011;61212;42.688;22.176;2022-07-10T07:52:19;10.93;;;2.67;;
69892;SDS011;61212;42.688;22.176;2022-07-10T07:54:45;6.15;;;2.08;;
69892;SDS011;61212;42.688;22.176;2022-07-10T07:57:11;4.57;;;2.00;;
69892;SDS011;61212;42.688;22.176;2022-07-10T07:59:37;8.05;;;2.45;;
69892;SDS011;61212;42.688;22.176;2022-07-10T08:02:05;4.95;;;2.22;;
69892;SDS011;61212;42.688;22.176;2022-07-10T08:04:31;7.72;;;2.63;;
69892;SDS011;61212;42.688;22.176;2022-07-10T08:06:57;8.20;;;1.88;;
69892;SDS011;61212;42.688;22.176;2022-07-10T08:09:26;7.35;;;2.17;;
69892;SDS011;61212;42.688;22.176;2022-07-10T08:11:52;7.60;;;1.95;;
69892;SDS011;61212;42.688;22.176;2022-07-10T08:14:18;6.03;;;2.10;;
69892;SDS011;61212;42.688;22.176;2022-07-10T08:16:44;7.25;;;2.15;;
69892;SDS011;61212;42.688;22.176;2022-07-10T08:19:10;4.97;;;2.20;;
69892;SDS011;61212;42.688;22.176;2022-07-10T08:21:36;8.05;;;2.08;;
69892;SDS011;61212;42.688;22.176;2022-07-10T08:24:03;9.05;;;1.90;;
69892;SDS011;61212;42.688;22.176;2022-07-10T08:26:29;6.63;;;1.80;;
69892;SDS011;61212;42.688;22.176;2022-07-10T08:28:55;5.20;;;2.38;;
69892;SDS011;61212;42.688;22.176;2022-07-10T08:31:21;12.63;;;1.90;;
69892;SDS011;61212;42.688;22.176;2022-07-10T08:33:47;5.38;;;1.98;;
69892;SDS011;61212;42.688;22.176;2022-07-10T08:36:14;4.18;;;1.60;;
69892;SDS011;61212;42.688;22.176;2022-07-10T08:38:40;6.68;;;1.52;;
69892;SDS011;61212;42.688;22.176;2022-07-10T08:41:06;4.65;;;1.80;;
69892;SDS011;61212;42.688;22.176;2022-07-10T08:43:32;6.07;;;1.63;;
69892;SDS011;61212;42.688;22.176;2022-07-10T08:45:58;6.60;;;1.60;;
69892;SDS011;61212;42.688;22.176;2022-07-10T08:48:25;3.30;;;1.75;;
69892;SDS011;61212;42.688;22.176;2022-07-10T08:50:52;5.47;;;1.40;;
69892;SDS011;61212;42.688;22.176;2022-07-10T08:55:51;3.45;;;1.55;;
69892;SDS011;61212;42.688;22.176;2022-07-10T08:58:17;4.32;;;1.70;;
69892;SDS011;61212;42.688;22.176;2022-07-10T09:00:44;4.65;;;1.52;;
69892;SDS011;61212;42.688;22.176;2022-07-10T09:03:10;3.33;;;1.20;;
69892;SDS011;61212;42.688;22.176;2022-07-10T09:05:36;3.88;;;1.83;;
69892;SDS011;61212;42.688;22.176;2022-07-10T09:08:02;3.78;;;1.30;;
69892;SDS011;61212;42.688;22.176;2022-07-10T09:10:28;3.22;;;1.55;;
69892;SDS011;61212;42.688;22.176;2022-07-10T09:12:58;4.80;;;1.70;;
69892;SDS011;61212;42.688;22.176;2022-07-10T09:15:26;4.72;;;1.40;;
69892;SDS011;61212;42.688;22.176;2022-07-10T09:20:24;3.85;;;1.42;;
69892;SDS011;61212;42.688;22.176;2022-07-10T09:22:51;4.53;;;1.90;;
69892;SDS011;61212;42.688;22.176;2022-07-10T09:25:17;5.85;;;1.95;;
69892;SDS011;61212;42.688;22.176;2022-07-10T09:27:53;2.97;;;1.73;;
69892;SDS011;61212;42.688;22.176;2022-07-10T09:30:30;7.13;;;2.25;;
69892;SDS011;61212;42.688;22.176;2022-07-10T09:33:19;4.13;;;1.85;;
69892;SDS011;61212;42.688;22.176;2022-07-10T09:36:05;4.90;;;1.40;;
69892;SDS011;61212;42.688;22.176;2022-07-10T09:43:43;6.55;;;1.42;;
69892;SDS011;61212;42.688;22.176;2022-07-10T09:46:10;4.68;;;2.13;;
69892;SDS011;61212;42.688;22.176;2022-07-10T09:48:36;3.83;;;1.85;;
69892;SDS011;61212;42.688;22.176;2022-07-10T09:51:02;3.22;;;1.45;;
69892;SDS011;61212;42.688;22.176;2022-07-10T09:53:29;5.10;;;1.83;;
69892;SDS011;61212;42.688;22.176;2022-07-10T09:55:55;4.93;;;1.45;;
69892;SDS011;61212;42.688;22.176;2022-07-10T09:58:22;5.10;;;1.60;;
69892;SDS011;61212;42.688;22.176;2022-07-10T10:00:50;3.17;;;1.58;;
69892;SDS011;61212;42.688;22.176;2022-07-10T10:03:16;3.75;;;1.27;;
69892;SDS011;61212;42.688;22.176;2022-07-10T10:05:45;8.57;;;1.80;;
69892;SDS011;61212;42.688;22.176;2022-07-10T10:08:24;3.17;;;1.70;;
69892;SDS011;61212;42.688;22.176;2022-07-10T10:10:51;11.07;;;2.33;;
69892;SDS011;61212;42.688;22.176;2022-07-10T10:13:18;6.43;;;1.70;;
69892;SDS011;61212;42.688;22.176;2022-07-10T10:15:45;7.10;;;2.13;;
69892;SDS011;61212;42.688;22.176;2022-07-10T10:18:12;6.50;;;1.55;;
69892;SDS011;61212;42.688;22.176;2022-07-10T10:20:40;5.57;;;1.35;;
69892;SDS011;61212;42.688;22.176;2022-07-10T10:23:12;4.00;;;1.55;;
69892;SDS011;61212;42.688;22.176;2022-07-10T10:25:38;6.85;;;1.70;;
69892;SDS011;61212;42.688;22.176;2022-07-10T10:28:05;7.60;;;1.83;;
69892;SDS011;61212;42.688;22.176;2022-07-10T10:30:33;5.75;;;1.85;;
69892;SDS011;61212;42.688;22.176;2022-07-10T10:33:02;2.50;;;1.42;;
69892;SDS011;61212;42.688;22.176;2022-07-10T10:35:41;6.63;;;1.45;;
69892;SDS011;61212;42.688;22.176;2022-07-10T10:38:09;4.82;;;1.30;;
69892;SDS011;61212;42.688;22.176;2022-07-10T10:40:35;3.22;;;1.30;;
69892;SDS011;61212;42.688;22.176;2022-07-10T10:43:21;6.38;;;1.38;;
69892;SDS011;61212;42.688;22.176;2022-07-10T10:45:48;7.88;;;1.60;;
69892;SDS011;61212;42.688;22.176;2022-07-10T10:48:15;4.32;;;1.30;;
69892;SDS011;61212;42.688;22.176;2022-07-10T10:50:51;5.82;;;1.63;;
69892;SDS011;61212;42.688;22.176;2022-07-10T10:53:19;4.88;;;1.15;;
69892;SDS011;61212;42.688;22.176;2022-07-10T10:58:37;7.68;;;1.52;;
69892;SDS011;61212;42.688;22.176;2022-07-10T11:01:03;5.47;;;2.03;;
69892;SDS011;61212;42.688;22.176;2022-07-10T11:03:30;3.95;;;1.17;;
69892;SDS011;61212;42.688;22.176;2022-07-10T11:05:56;6.03;;;1.25;;
69892;SDS011;61212;42.688;22.176;2022-07-10T11:08:35;7.85;;;1.50;;
69892;SDS011;61212;42.688;22.176;2022-07-10T11:11:36;5.85;;;1.45;;
69892;SDS011;61212;42.688;22.176;2022-07-10T11:13:48;4.63;;;1.40;;
69892;SDS011;61212;42.688;22.176;2022-07-10T11:16:15;4.00;;;1.48;;
69892;SDS011;61212;42.688;22.176;2022-07-10T11:18:41;6.30;;;1.60;;
69892;SDS011;61212;42.688;22.176;2022-07-10T11:21:09;5.18;;;1.20;;
69892;SDS011;61212;42.688;22.176;2022-07-10T11:23:51;3.22;;;1.38;;
69892;SDS011;61212;42.688;22.176;2022-07-10T11:29:02;5.60;;;2.30;;
69892;SDS011;61212;42.688;22.176;2022-07-10T11:31:30;5.88;;;1.80;;
69892;SDS011;61212;42.688;22.176;2022-07-10T11:36:47;4.47;;;1.40;;
69892;SDS011;61212;42.688;22.176;2022-07-10T11:39:14;3.50;;;1.63;;
69892;SDS011;61212;42.688;22.176;2022-07-10T11:41:45;8.18;;;1.63;;
69892;SDS011;61212;42.688;22.176;2022-07-10T11:44:15;4.80;;;1.30;;
69892;SDS011;61212;42.688;22.176;2022-07-10T11:46:42;4.10;;;1.40;;
69892;SDS011;61212;42.688;22.176;2022-07-10T11:49:14;3.80;;;1.73;;
69892;SDS011;61212;42.688;22.176;2022-07-10T11:51:40;4.55;;;1.42;;
69892;SDS011;61212;42.688;22.176;2022-07-10T11:54:07;7.32;;;1.50;;
69892;SDS011;61212;42.688;22.176;2022-07-10T11:56:36;4.75;;;1.50;;
69892;SDS011;61212;42.688;22.176;2022-07-10T11:59:04;3.03;;;1.27;;
69892;SDS011;61212;42.688;22.176;2022-07-10T12:01:34;3.53;;;1.65;;
69892;SDS011;61212;42.688;22.176;2022-07-10T12:04:04;5.50;;;1.60;;
69892;SDS011;61212;42.688;22.176;2022-07-10T12:06:32;7.00;;;1.38;;
69892;SDS011;61212;42.688;22.176;2022-07-10T12:09:02;6.00;;;1.77;;
69892;SDS011;61212;42.688;22.176;2022-07-10T12:11:28;6.25;;;1.50;;
69892;SDS011;61212;42.688;22.176;2022-07-10T12:14:07;3.40;;;1.40;;
69892;SDS011;61212;42.688;22.176;2022-07-10T12:16:37;12.35;;;1.27;;
69892;SDS011;61212;42.688;22.176;2022-07-10T12:19:03;2.80;;;1.63;;
69892;SDS011;61212;42.688;22.176;2022-07-10T12:21:30;10.40;;;2.20;;
69892;SDS011;61212;42.688;22.176;2022-07-10T12:23:56;6.05;;;1.83;;
69892;SDS011;61212;42.688;22.176;2022-07-10T12:26:22;3.50;;;1.10;;
69892;SDS011;61212;42.688;22.176;2022-07-10T12:28:56;4.68;;;1.35;;
69892;SDS011;61212;42.688;22.176;2022-07-10T12:31:30;5.00;;;1.30;;
69892;SDS011;61212;42.688;22.176;2022-07-10T12:33:57;2.75;;;1.50;;
69892;SDS011;61212;42.688;22.176;2022-07-10T12:36:26;6.88;;;1.80;;
69892;SDS011;61212;42.688;22.176;2022-07-10T12:38:56;5.93;;;1.50;;
69892;SDS011;61212;42.688;22.176;2022-07-10T12:41:23;2.80;;;1.20;;
69892;SDS011;61212;42.688;22.176;2022-07-10T12:43:50;4.70;;;1.38;;
69892;SDS011;61212;42.688;22.176;2022-07-10T12:46:18;1.98;;;1.00;;
69892;SDS011;61212;42.688;22.176;2022-07-10T12:51:46;3.67;;;1.30;;
69892;SDS011;61212;42.688;22.176;2022-07-10T12:56:57;5.22;;;1.92;;
69892;SDS011;61212;42.688;22.176;2022-07-10T12:59:24;8.40;;;1.40;;
69892;SDS011;61212;42.688;22.176;2022-07-10T13:01:50;5.35;;;1.25;;
69892;SDS011;61212;42.688;22.176;2022-07-10T13:04:22;3.95;;;1.35;;
69892;SDS011;61212;42.688;22.176;2022-07-10T13:06:48;3.05;;;1.40;;
69892;SDS011;61212;42.688;22.176;2022-07-10T13:09:21;3.78;;;1.33;;
69892;SDS011;61212;42.688;22.176;2022-07-10T13:14:14;6.82;;;1.90;;
69892;SDS011;61212;42.688;22.176;2022-07-10T13:16:40;2.20;;;1.20;;
69892;SDS011;61212;42.688;22.176;2022-07-10T13:19:06;6.03;;;1.70;;
69892;SDS011;61212;42.688;22.176;2022-07-10T13:21:32;2.47;;;1.23;;
69892;SDS011;61212;42.688;22.176;2022-07-10T13:23:58;5.30;;;1.55;;
69892;SDS011;61212;42.688;22.176;2022-07-10T13:26:24;4.05;;;1.27;;
69892;SDS011;61212;42.688;22.176;2022-07-10T13:28:51;5.55;;;1.20;;
69892;SDS011;61212;42.688;22.176;2022-07-10T13:31:17;7.15;;;1.30;;
69892;SDS011;61212;42.688;22.176;2022-07-10T13:33:43;3.95;;;1.38;;
69892;SDS011;61212;42.688;22.176;2022-07-10T13:36:09;3.72;;;1.30;;
69892;SDS011;61212;42.688;22.176;2022-07-10T13:38:35;6.28;;;2.15;;
69892;SDS011;61212;42.688;22.176;2022-07-10T13:41:02;2.42;;;1.60;;
69892;SDS011;61212;42.688;22.176;2022-07-10T13:43:28;5.30;;;1.73;;
69892;SDS011;61212;42.688;22.176;2022-07-10T13:45:57;5.32;;;1.38;;
69892;SDS011;61212;42.688;22.176;2022-07-10T13:48:28;5.40;;;1.48;;
69892;SDS011;61212;42.688;22.176;2022-07-10T13:50:54;3.50;;;1.42;;
69892;SDS011;61212;42.688;22.176;2022-07-10T13:53:20;4.25;;;1.67;;
69892;SDS011;61212;42.688;22.176;2022-07-10T13:55:46;5.22;;;1.70;;
69892;SDS011;61212;42.688;22.176;2022-07-10T13:58:14;3.05;;;1.50;;
69892;SDS011;61212;42.688;22.176;2022-07-10T14:00:40;2.60;;;1.30;;
69892;SDS011;61212;42.688;22.176;2022-07-10T14:03:06;6.63;;;1.40;;
69892;SDS011;61212;42.688;22.176;2022-07-10T14:05:35;5.28;;;1.30;;
69892;SDS011;61212;42.688;22.176;2022-07-10T14:08:01;3.65;;;1.20;;
69892;SDS011;61212;42.688;22.176;2022-07-10T14:10:28;3.22;;;1.50;;
69892;SDS011;61212;42.688;22.176;2022-07-10T14:12:55;7.30;;;1.45;;
69892;SDS011;61212;42.688;22.176;2022-07-10T14:15:21;4.25;;;1.27;;
69892;SDS011;61212;42.688;22.176;2022-07-10T14:17:47;7.63;;;1.65;;
69892;SDS011;61212;42.688;22.176;2022-07-10T14:20:15;7.53;;;1.30;;
69892;SDS011;61212;42.688;22.176;2022-07-10T14:22:42;6.47;;;1.30;;
69892;SDS011;61212;42.688;22.176;2022-07-10T14:25:11;4.97;;;1.90;;
69892;SDS011;61212;42.688;22.176;2022-07-10T14:27:38;5.00;;;1.40;;
69892;SDS011;61212;42.688;22.176;2022-07-10T14:30:04;4.80;;;1.50;;
69892;SDS011;61212;42.688;22.176;2022-07-10T14:32:31;3.85;;;1.90;;
69892;SDS011;61212;42.688;22.176;2022-07-10T14:34:57;4.63;;;1.77;;
69892;SDS011;61212;42.688;22.176;2022-07-10T14:37:23;3.13;;;1.60;;
69892;SDS011;61212;42.688;22.176;2022-07-10T14:39:49;2.78;;;1.30;;
69892;SDS011;61212;42.688;22.176;2022-07-10T14:42:15;3.53;;;1.40;;
69892;SDS011;61212;42.688;22.176;2022-07-10T14:44:41;3.83;;;1.40;;
69892;SDS011;61212;42.688;22.176;2022-07-10T14:47:08;4.47;;;1.20;;
69892;SDS011;61212;42.688;22.176;2022-07-10T14:49:34;4.00;;;1.27;;
69892;SDS011;61212;42.688;22.176;2022-07-10T14:52:00;4.30;;;1.80;;
69892;SDS011;61212;42.688;22.176;2022-07-10T14:54:26;7.70;;;1.70;;
69892;SDS011;61212;42.688;22.176;2022-07-10T14:56:52;4.03;;;1.40;;
69892;SDS011;61212;42.688;22.176;2022-07-10T14:59:18;3.08;;;1.40;;
69892;SDS011;61212;42.688;22.176;2022-07-10T15:01:45;3.28;;;1.60;;
69892;SDS011;61212;42.688;22.176;2022-07-10T15:04:11;3.63;;;1.30;;
69892;SDS011;61212;42.688;22.176;2022-07-10T15:06:37;3.65;;;1.80;;
69892;SDS011;61212;42.688;22.176;2022-07-10T15:09:03;3.15;;;1.50;;
69892;SDS011;61212;42.688;22.176;2022-07-10T15:11:29;4.30;;;1.33;;
69892;SDS011;61212;42.688;22.176;2022-07-10T15:13:55;3.63;;;0.95;;
69892;SDS011;61212;42.688;22.176;2022-07-10T15:16:25;3.05;;;1.42;;